AIRPORT ID: KTNP

DATE: 2024-07-20 ZULU TIME: 14.55 LOCAL TIME: 7.55


METAR KTNP 201455Z AUTO 26010KT 10SM 32/07 A3003

ALTIMETER: A3003 Q1017

DENSITY ALT: 4000 Ft

WIND DIRECT: 280

WIND SPEED: 10 Gust

WIND CONDITIONS:

VISIBILTY: 10SM 9999M

TEMPERATURE: 89 F 32 C

DEW POINT: 44 F 7 C

HUMID: 21%

LCL: Above 5,000 feet

RADIO CHECK: 0

ADVISARIES: 0

GREETINGS: 0

CONVERSATIONS: 8